Terminal Aerodrome Forecast
Issued by NWS Greer, SC

Home | Current Version | Previous Version | Graphics & Text | Print | Product List | Glossary On
Versions: 1 2 3 4 5 6 7 8 9 10 11 12 13 14 15 16 17
000
FTUS42 KGSP 270540
TAFAVL
TAF
KAVL 270540Z 2706/2806 00000KT P6SM FEW250
      TEMPO 2708/2712 6SM BR BKN003
     FM271300 35003KT P6SM SCT250
     FM271700 15007KT P6SM SCT045 PROB30 2720/2724 4SM -TSRA
      BKN035CB BKN060 BKN130
     FM280400 09003KT P6SM SCT020=

USA.gov is the U.S. government's official web portal to all federal, state and local government web resources and services.